createdAt,value
2019-06-01T00:01:11.522Z,82.30
2019-06-01T00:06:40.811Z,82.40
2019-06-01T00:12:10.072Z,82.80
2019-06-01T00:17:39.801Z,83.20
2019-06-01T00:23:09.065Z,83.60
2019-06-01T00:28:41.686Z,83.80
2019-06-01T00:34:16.904Z,83.90
2019-06-01T00:39:46.170Z,84.00
2019-06-01T00:45:15.829Z,84.30
2019-06-01T00:50:45.115Z,84.50
2019-06-01T00:56:14.387Z,84.60
2019-06-01T01:01:43.943Z,84.90
2019-06-01T01:07:13.216Z,85.10
2019-06-01T01:12:53.230Z,85.40
2019-06-01T01:18:22.502Z,85.60
2019-06-01T01:23:53.102Z,85.80
2019-06-01T01:29:22.685Z,86.10
2019-06-01T01:34:51.962Z,87.00
2019-06-01T01:40:21.246Z,86.70
2019-06-01T01:45:50.666Z,87.10
2019-06-01T01:51:19.965Z,87.90
2019-06-01T01:56:49.948Z,87.70
2019-06-01T02:02:19.198Z,88.00
2019-06-01T02:07:48.490Z,88.30
2019-06-01T02:13:17.759Z,88.40
2019-06-01T02:18:47.035Z,88.50
2019-06-01T02:24:16.313Z,88.80
2019-06-01T02:29:45.738Z,88.90
2019-06-01T02:35:15.232Z,89.10
2019-06-01T02:40:44.544Z,89.20
2019-06-01T02:46:13.955Z,89.40
2019-06-01T02:51:43.232Z,89.60
2019-06-01T02:57:12.503Z,89.70
2019-06-01T03:02:42.245Z,89.70
2019-06-01T03:08:11.956Z,89.80
2019-06-01T03:13:45.037Z,89.90
2019-06-01T03:19:17.040Z,89.80
2019-06-01T03:24:48.783Z,90.10
2019-06-01T03:30:23.749Z,90.20
2019-06-01T03:35:53.031Z,90.30
2019-06-01T03:41:22.743Z,90.20
2019-06-01T03:46:52.029Z,90.30
2019-06-01T03:52:21.298Z,90.30
2019-06-01T03:57:50.575Z,90.30
2019-06-01T04:03:19.852Z,90.30
2019-06-01T04:08:49.150Z,90.30
2019-06-01T04:14:18.434Z,90.30
2019-06-01T04:19:47.722Z,90.20
2019-06-01T04:25:16.998Z,90.00
2019-06-01T04:30:46.357Z,90.00
2019-06-01T04:36:16.597Z,89.60
2019-06-01T04:41:45.871Z,89.40
2019-06-01T04:47:15.158Z,89.00
2019-06-01T04:52:44.444Z,88.20
2019-06-01T04:58:14.843Z,87.60
2019-06-01T05:03:44.259Z,87.30
2019-06-01T05:09:13.538Z,87.00
2019-06-01T05:14:42.823Z,86.30
2019-06-01T05:20:14.740Z,85.40
2019-06-01T05:25:44.180Z,84.40
2019-06-01T05:31:21.808Z,83.90
2019-06-01T05:36:44.468Z,83.30
2019-06-01T05:42:14.766Z,82.40
2019-06-01T05:47:44.139Z,81.10
2019-06-01T05:53:14.349Z,80.70
2019-06-01T05:58:43.780Z,79.90
2019-06-01T06:04:13.373Z,79.50
2019-06-01T06:09:42.979Z,78.70
2019-06-01T06:15:13.554Z,77.70
2019-06-01T06:20:42.994Z,76.70
2019-06-01T06:26:15.007Z,76.40
2019-06-01T06:31:43.460Z,76.00
2019-06-01T06:37:13.482Z,75.70
2019-06-01T06:42:47.240Z,74.40
2019-06-01T06:48:16.900Z,73.80
2019-06-01T06:53:46.189Z,73.30
2019-06-01T06:59:16.154Z,72.80
2019-06-01T07:04:47.152Z,71.90
2019-06-01T07:10:17.705Z,70.10
2019-06-01T07:15:47.677Z,70.00
2019-06-01T07:21:17.940Z,69.80
2019-06-01T07:26:47.187Z,68.00
2019-06-01T07:32:16.465Z,67.30
2019-06-01T07:37:51.301Z,66.70
2019-06-01T07:43:20.606Z,65.40
2019-06-01T07:48:49.898Z,65.30
2019-06-01T07:54:20.248Z,65.40
2019-06-01T07:59:51.253Z,64.80
2019-06-01T08:05:23.224Z,63.80
2019-06-01T08:10:52.111Z,63.00
2019-06-01T08:16:23.666Z,62.50
2019-06-01T08:21:53.163Z,61.70
2019-06-01T08:27:24.395Z,60.80
2019-06-01T08:32:53.782Z,61.30
2019-06-01T08:38:25.418Z,58.90
2019-06-01T08:43:54.924Z,58.90
2019-06-01T08:49:24.269Z,58.30
2019-06-01T08:54:55.796Z,59.30
2019-06-01T09:00:26.361Z,60.00
2019-06-01T09:05:55.647Z,58.60
2019-06-01T09:11:25.138Z,59.30
2019-06-01T09:16:54.542Z,57.30
2019-06-01T09:22:23.822Z,58.30
2019-06-01T09:27:53.258Z,57.50
2019-06-01T09:33:22.534Z,57.00
2019-06-01T09:38:51.836Z,56.10
2019-06-01T09:44:21.122Z,57.30
2019-06-01T09:49:50.419Z,55.70
2019-06-01T09:55:19.768Z,56.30
2019-06-01T10:00:49.779Z,54.40
2019-06-01T10:06:19.178Z,54.50
2019-06-01T10:11:48.508Z,55.40
2019-06-01T10:17:19.781Z,53.90
2019-06-01T10:22:49.051Z,54.60
2019-06-01T10:28:18.339Z,54.00
2019-06-01T10:33:51.265Z,53.00
2019-06-01T10:39:20.392Z,52.70
2019-06-01T10:44:49.704Z,52.70
2019-06-01T10:50:19.824Z,52.70
2019-06-01T10:55:49.119Z,52.30
2019-06-01T11:01:18.463Z,53.50
2019-06-01T11:06:48.755Z,53.20
2019-06-01T11:12:18.309Z,53.70
2019-06-01T11:17:47.580Z,53.60
2019-06-01T11:23:21.620Z,52.90
2019-06-01T11:28:50.915Z,54.00
2019-06-01T11:34:20.269Z,51.50
2019-06-01T11:39:49.543Z,51.20
2019-06-01T11:45:18.883Z,51.70
2019-06-01T11:50:48.184Z,50.70
2019-06-01T11:56:17.576Z,50.50
2019-06-01T12:01:46.865Z,49.80
2019-06-01T12:07:17.915Z,50.80
2019-06-01T12:12:47.151Z,50.70
2019-06-01T12:18:16.432Z,51.30
2019-06-01T12:23:45.777Z,50.90
2019-06-01T12:29:15.061Z,50.20
2019-06-01T12:34:44.416Z,50.20
2019-06-01T12:40:15.185Z,51.20
2019-06-01T12:45:45.703Z,49.70
2019-06-01T12:51:15.045Z,50.00
2019-06-01T12:56:44.765Z,50.70
2019-06-01T13:02:14.152Z,49.40
2019-06-01T13:07:57.505Z,50.40
2019-06-01T13:13:14.532Z,50.10
2019-06-01T13:18:43.836Z,49.80
2019-06-01T13:24:13.423Z,50.60
2019-06-01T13:29:43.709Z,49.20
2019-06-01T13:35:14.959Z,49.30
2019-06-01T13:40:47.638Z,50.20
2019-06-01T13:46:17.097Z,48.80
2019-06-01T13:51:47.824Z,49.20
2019-06-01T13:57:17.206Z,49.60
2019-06-01T14:02:50.560Z,48.50
2019-06-01T14:08:28.461Z,48.20
2019-06-01T14:13:49.887Z,49.30
2019-06-01T14:19:19.313Z,48.30
2019-06-01T14:24:59.917Z,47.80
2019-06-01T14:30:23.883Z,48.10
2019-06-01T14:35:50.938Z,48.30
2019-06-01T14:41:20.220Z,48.30
2019-06-01T14:46:59.034Z,48.30
2019-06-01T14:52:22.451Z,49.00
2019-06-01T14:57:52.433Z,43.30
2019-06-01T15:03:22.164Z,40.30
2019-06-01T15:09:10.744Z,43.70
2019-06-01T15:14:22.630Z,45.50
2019-06-01T15:19:51.966Z,47.10
2019-06-01T15:25:21.297Z,47.20
2019-06-01T15:30:50.874Z,46.80
2019-06-01T15:36:22.071Z,46.70
2019-06-01T15:41:52.652Z,47.00
2019-06-01T15:47:22.267Z,47.40
2019-06-01T15:52:54.846Z,49.50
2019-06-01T15:58:24.299Z,48.70
2019-06-01T16:03:54.952Z,48.60
2019-06-01T16:09:41.502Z,49.40
2019-06-01T16:14:57.590Z,50.00
2019-06-01T16:20:27.811Z,50.30
2019-06-01T16:26:07.531Z,50.70
2019-06-01T16:31:28.099Z,50.90
2019-06-01T16:36:57.390Z,50.20
2019-06-01T16:42:26.662Z,50.10
2019-06-01T16:47:55.954Z,49.90
2019-06-01T16:53:25.244Z,50.40
2019-06-01T16:58:54.521Z,49.60
2019-06-01T17:04:27.127Z,49.60
2019-06-01T17:10:19.518Z,49.30
2019-06-01T17:15:31.263Z,48.70
2019-06-01T17:21:01.431Z,48.60
2019-06-01T17:26:30.791Z,48.50
2019-06-01T17:32:17.796Z,48.40
2019-06-01T17:37:31.169Z,48.40
2019-06-01T17:43:01.387Z,48.50
2019-06-01T17:48:31.074Z,48.90
2019-06-01T17:54:02.226Z,48.90
2019-06-01T17:59:31.426Z,48.80
2019-06-01T18:05:01.910Z,49.10
2019-06-01T18:10:31.477Z,49.40
2019-06-01T18:16:02.884Z,49.20
2019-06-01T18:21:33.509Z,49.30
2019-06-01T18:27:13.524Z,49.60
2019-06-01T18:32:42.755Z,50.20
2019-06-01T18:38:12.957Z,50.90
2019-06-01T18:43:43.288Z,51.40
2019-06-01T18:49:16.137Z,52.10
2019-06-01T18:54:44.580Z,52.50
2019-06-01T19:00:17.174Z,53.10
2019-06-01T19:05:46.479Z,53.50
2019-06-01T19:11:30.512Z,53.90
2019-06-01T19:16:47.789Z,54.40
2019-06-01T19:22:17.075Z,54.80
2019-06-01T19:27:59.385Z,55.10
2019-06-01T19:33:26.732Z,55.40
2019-06-01T19:38:56.829Z,56.00
2019-06-01T19:44:26.113Z,56.40
2019-06-01T19:49:57.489Z,57.00
2019-06-01T19:55:30.331Z,57.40
2019-06-01T20:00:59.597Z,57.90
2019-06-01T20:06:28.873Z,58.40
2019-06-01T20:12:02.069Z,58.80
2019-06-01T20:17:30.275Z,59.30
2019-06-01T20:22:59.593Z,60.30
2019-06-01T20:28:28.939Z,61.00
2019-06-01T20:33:59.170Z,61.60
2019-06-01T20:39:28.440Z,62.20
2019-06-01T20:44:57.715Z,62.50
2019-06-01T20:50:27.079Z,63.60
2019-06-01T20:55:57.316Z,63.40
2019-06-01T21:01:31.431Z,63.90
2019-06-01T21:07:09.212Z,64.50
2019-06-01T21:12:59.957Z,64.80
2019-06-01T21:18:31.721Z,65.30
2019-06-01T21:24:14.907Z,65.80
2019-06-01T21:30:06.574Z,66.30
2019-06-01T21:35:49.442Z,67.00
2019-06-01T21:41:43.101Z,67.20
2019-06-01T21:47:12.373Z,67.20
2019-06-01T21:52:41.666Z,67.80
2019-06-01T21:58:11.048Z,68.20
2019-06-01T22:03:40.390Z,68.50
2019-06-01T22:09:09.749Z,69.00
2019-06-01T22:14:39.035Z,69.20
2019-06-01T22:20:08.883Z,69.50
2019-06-01T22:25:38.159Z,69.80
2019-06-01T22:31:07.451Z,70.20
2019-06-01T22:36:36.727Z,70.60
2019-06-01T22:42:06.147Z,70.70
2019-06-01T22:47:35.437Z,71.30
2019-06-01T22:53:04.903Z,71.60
2019-06-01T22:58:34.222Z,71.90
2019-06-01T23:04:03.503Z,72.20
2019-06-01T23:09:32.793Z,72.70
2019-06-01T23:15:02.082Z,72.80
2019-06-01T23:20:32.304Z,72.90
2019-06-01T23:26:01.590Z,73.10
2019-06-01T23:31:30.875Z,73.50
2019-06-01T23:37:03.129Z,73.90
2019-06-01T23:42:32.944Z,74.20
2019-06-01T23:48:02.300Z,74.50
2019-06-01T23:53:31.706Z,74.70
2019-06-01T23:59:01.933Z,74.80
